Tiempo atmosférico en la estación meteorológica de Chandrexa De Queixa, Ourense (990 m.)



Fecha
DESCASC
Temp. máxima en grados centígrados (hora)
DESCASC
Temp. mínima en grados centígrados (hora)
DESCASC
Temp. media en grados centígrados
DESCASC
Racha de viento máxima en m/sg (hora)
DESCASC
Velocidad máxima media en intervalos de 10 minutos(hora)
DESCASC
Precipitaciones diarias en mm
DESCASC
Precipitaciones de 00:00 a 06:00 en mm
DESCASC
Precipitaciones de 06:00 a 12:00 en mm
DESCASC
Precipitaciones de 12:00 a 18:00 en mm
DESCASC
Precipitaciones de 18:00 a 24:00 en mm
DESCASC
18-10-2018 16.9 (16:10) 8.5 (23:59) 12.7 5.83 (03:30) 3.61 (03:30) 1 1 0 0 0
17-10-2018 16.4 (14:00) 4.6 (09:00) 10.5 6.11 (15:20) 3.06 (15:10) 8.4 0 0 0 8.4
16-10-2018 17.1 (15:20) 4.8 (09:20) 11 4.72 (18:00) 2.78 (21:20) 0 0 0 0 0
15-10-2018 12 (17:20) 5.4 (00:00) 8.7 16.39 (05:50) 10.83 (05:30) 1 0 1 0 0
14-10-2018 14.4 (00:00) 4.3 (00:00) 9.3 11.67 (13:30) 5 (04:40) 42.8 35.6 4 3.2 0
13-10-2018 20.2 (17:20) 14.4 (00:00) 17.3 22.78 (02:50) 15.83 (01:10) 0.8 0 0 0 0.8
12-10-2018 17.3 (13:30) 10.8 (00:00) 14 23.89 (23:20) 16.67 (23:30) 0 0 0 0 0
11-10-2018 14.8 (15:50) 10.8 (06:20) 12.8 28.61 (07:10) 18.06 (05:50) 9.4 0.6 8.8 0 0
10-10-2018 19.6 (16:00) 6.6 (00:00) 13.1 21.67 (22:10) 15 (22:10) 0 0 0 0 0
09-10-2018 21.1 (15:10) 3.3 (09:00) 12.2 6.67 (23:50) 4.44 (23:50) 0 0 0 0 0
08-10-2018 19 (16:50) 1 (08:20) 10 4.44 (15:30) 2.5 (11:40) 0 0 0 0 0
07-10-2018 14.6 (16:30) 0.8 (08:50) 7.7 9.72 (14:20) 4.44 (14:10) 0 0 0 0 0
06-10-2018 16.6 (13:20) 4.5 (23:50) 10.6 7.22 (15:30) 3.61 (16:00) 0.2 0 0 0.2 0
05-10-2018 25.9 (17:00) 7.6 (09:00) 16.7 7.5 (15:50) 4.17 (15:50) 0 0 0 0 0
04-10-2018 25.3 (16:50) 7.7 (00:00) 16.5 5.56 (17:30) 2.78 (21:00) 0 0 0 0 0
03-10-2018 27.1 (17:10) 4.7 (00:00) 15.9 5.56 (17:00) 2.5 (13:20) 0 0 0 0 0
02-10-2018 25.1 (17:00) 3.7 (00:00) 14.4 7.78 (15:40) 4.17 (15:10) 0 0 0 0 0
01-10-2018 20.9 (15:20) 4.1 (00:00) 12.5 8.61 (16:10) 4.44 (16:20) 0 0 0 0 0
30-09-2018 24.1 (14:00) 9.1 (00:00) 16.6 8.06 (17:30) 3.61 (18:20) 0 0 0 0 0
29-09-2018 26.1 (16:20) 10.2 (00:00) 18.2 5.83 (17:00) 2.5 (15:10) 0 0 0 0 0
28-09-2018 26.7 (14:20) 11 (00:00) 18.9 4.44 (15:10) 2.5 (12:10) 0 0 0 0 0
27-09-2018 28.1 (16:40) 13.7 (00:00) 20.9 10.28 (12:30) 5.83 (12:40) 0.2 0 0 0 0.2
26-09-2018 29.4 (15:50) 9.4 (00:00) 19.4 6.39 (14:10) 3.61 (14:40) 0 0 0 0 0
25-09-2018 24.7 (16:50) 10.2 (00:00) 17.5 4.17 (15:30) 2.5 (12:00) 0 0 0 0 0
24-09-2018 25.4 (16:30) 9.9 (00:00) 17.6 4.44 (17:50) 2.5 (16:20) 0 0 0 0 0
23-09-2018 27.4 (14:50) 10.4 (09:00) 18.9 6.94 (16:00) 3.06 (16:10) 0 0 0 0 0
22-09-2018 26.7 (14:00) 10.4 (07:50) 18.6 5.28 (15:10) 2.22 (11:50) 0 0 0 0 0
21-09-2018 22.4 (16:20) 8.5 (07:20) 15.4 5 (16:40) 2.22 (14:40) 0 0 0 0 0
20-09-2018 27.9 (16:00) 7.3 (07:50) 17.6 8.33 (12:50) 4.72 (13:50) 0 0 0 0 0

Gráficas

Temp. máximas Temp. mínimas Temp. medias Precipitaciones Rachas de viento máximas Velocidades máximas media en intervalos de 10 minutos

Datos horarios

Fecha y hora oficial Temperatura (ºC) Velocidad del viento (km/h) Dirección del viento Racha (km/h) Dirección de racha Precipitación (mm) Presión (hPa) Tendencia (hPa) Humedad (%)
2018-10-19 23:00:00 10.9 0 Calma 6 Sur 0 -- -- 94
2018-10-19 22:00:00 12 4 Sur 8 Sudeste 0 -- -- 90
2018-10-19 21:00:00 13.5 2 Sur 5 Sur 0 -- -- 86
2018-10-19 20:00:00 15.2 0 Calma 20 Norte 0 -- -- 81
2018-10-19 19:00:00 17.2 5 Norte 13 Nordeste 0 -- -- 73
2018-10-19 18:00:00 17.8 6 Norte 17 Norte 0 -- -- 65
2018-10-19 17:00:00 18.1 6 Norte 23 Nordeste 0 -- -- 65
2018-10-19 16:00:00 19 4 Nordeste 23 Nordeste 0 -- -- 57
2018-10-19 15:00:00 18.2 12 Norte 26 Norte 0 -- -- 57
2018-10-19 14:00:00 17.6 9 Norte 21 Norte 0 -- -- 59
2018-10-19 13:00:00 16.8 11 Norte 23 Norte 0 -- -- 61
2018-10-19 12:00:00 15.1 3 Nordeste 16 Norte 0 -- -- 69
2018-10-19 11:00:00 12.3 4 Nordeste 11 Nordeste 0 -- -- 79
2018-10-19 10:00:00 9.3 0 Calma 7 Nordeste 0 -- -- 93
2018-10-19 09:00:00 7.9 0 Calma 13 Norte 0 -- -- 100
2018-10-19 08:00:00 7.2 2 Sudeste 9 Sur 0 -- -- 100
2018-10-19 07:00:00 6.6 0 Calma 5 Sudoeste 0 -- -- 100
2018-10-19 06:00:00 6.8 0 Calma 4 Sudeste 0 -- -- 100
2018-10-19 05:00:00 6.4 0 Calma 3 Sur 0 -- -- 100
2018-10-19 04:00:00 6.8 0 Calma 3 Sudeste 0 -- -- 100
2018-10-19 03:00:00 7 0 Calma 4 Sur 0 -- -- 100
2018-10-19 02:00:00 7.4 0 Calma 10 Sur 0 -- -- 100
2018-10-19 01:00:00 7.9 2 Sur 5 Sur 0 -- -- 98
2018-10-19 00:00:00 8.5 0 Calma 4 Sur 0 -- -- 98
2018-10-18 23:00:00 9.1 0 Calma 4 Sudeste 0 -- -- 97
2018-10-18 22:00:00 10.1 0 Calma 4 Sudoeste 0 -- -- 94
2018-10-18 21:00:00 11.3 2 Sudoeste 6 Sudoeste 0 -- -- 91
2018-10-18 20:00:00 12.9 2 Sur 6 Nordeste 0 -- -- 87
2018-10-18 19:00:00 14.1 0 Calma 13 Norte 0 -- -- 82
2018-10-18 18:00:00 16.2 7 Norte 16 Nordeste 0 -- -- 75
2018-10-18 17:00:00 16 4 Norte 21 Norte 0 -- -- 75
2018-10-18 16:00:00 16.6 9 Norte 21 Norte 0 -- -- 75
2018-10-18 15:00:00 15.9 9 Norte 19 Nordeste 0 -- -- 76
2018-10-18 14:00:00 13.6 3 Norte 15 Norte 0 -- -- 84
2018-10-18 13:00:00 14.3 5 Norte 17 Nordeste 0 -- -- 80
2018-10-18 12:00:00 13.3 7 Norte 20 Norte 0 -- -- 82
2018-10-18 11:00:00 11 7 Norte 17 Nordeste 0 -- -- 93
2018-10-18 10:00:00 9.3 4 Norte 11 Noroeste 0 -- -- 99
2018-10-18 09:00:00 8.7 3 Sur 16 Norte 0 -- -- 97
2018-10-18 08:00:00 8.7 5 Norte 19 Norte 0 -- -- 99
2018-10-18 07:00:00 8.9 0 Calma 6 Noroeste 0 -- -- 98
2018-10-18 06:00:00 9.1 2 Este 13 Nordeste 0.2 -- -- 99
2018-10-18 05:00:00 9.2 2 Sur 11 Nordeste 0 -- -- 99
2018-10-18 04:00:00 9.5 3 Nordeste 21 Nordeste 0 -- -- 97
2018-10-18 03:00:00 9.3 9 Norte 16 Norte 0.2 -- -- 99
2018-10-18 02:00:00 9.3 2 Este 20 Nordeste 0.2 -- -- 100
2018-10-18 01:00:00 9.5 4 Nordeste 19 Nordeste 0.4 -- -- 100
2018-10-18 00:00:00 9.5 6 Nordeste 12 Norte 0.4 -- -- 100
2018-10-17 23:00:00 9.5 5 Nordeste 10 Nordeste 0.2 -- -- 99
2018-10-17 22:00:00 9.8 2 Sudeste 6 Nordeste 0.4 -- -- 99
2018-10-17 21:00:00 9.8 5 Norte 11 Norte 0.6 -- -- 99
2018-10-17 20:00:00 10 3 Norte 6 Nordeste 1.2 -- -- 97
2018-10-17 19:00:00 10.6 0 Calma 12 Norte 5.6 -- -- 95
2018-10-17 18:00:00 11.4 3 Noroeste 12 Norte 0 -- -- 92
2018-10-17 17:00:00 12.7 3 Noroeste 17 Noroeste 0 -- -- 83
2018-10-17 16:00:00 13.5 5 Sudoeste 22 Sur 0 -- -- 76
2018-10-17 15:00:00 14.4 4 Oeste 16 Noroeste 0 -- -- 75
2018-10-17 14:00:00 16.4 5 Norte 14 Norte 0 -- -- 70
2018-10-17 13:00:00 14.9 3 Sudeste 8 Sur 0 -- -- 65
2018-10-17 12:00:00 13.1 0 Calma 5 Oeste 0 -- -- 81
2018-10-17 11:00:00 8.8 0 Calma 8 Oeste 0 -- -- 100
2018-10-17 10:00:00 5.5 0 Calma 6 Sudoeste 0 -- -- 100
2018-10-17 09:00:00 4.6 3 Sudoeste 8 Oeste 0 -- -- 100
2018-10-17 08:00:00 5 5 Sudoeste 11 Sudoeste 0 -- -- 100
2018-10-17 07:00:00 4.9 4 Sudoeste 8 Sudoeste 0 -- -- 100
2018-10-17 06:00:00 5 2 Sudoeste 8 Sudoeste 0 -- -- 100
2018-10-17 05:00:00 5.1 3 Sudoeste 5 Sudoeste 0 -- -- 99
2018-10-17 04:00:00 5.3 2 Sur 6 Sudoeste 0 -- -- 99
2018-10-17 03:00:00 5.8 3 Sudoeste 7 Oeste 0 -- -- 99
2018-10-17 02:00:00 6.2 3 Sudoeste 6 Oeste 0 -- -- 98
2018-10-17 01:00:00 6.7 3 Sudoeste 6 Sudoeste 0 -- -- 98
2018-10-17 00:00:00 7.2 3 Sur 5 Sudoeste 0 -- -- 95
2018-10-16 23:00:00 7.9 3 Sudoeste 6 Sur 0 -- -- 93
2018-10-16 22:00:00 8.9 3 Sur 15 Sur 0 -- -- 91
2018-10-16 21:00:00 10.3 6 Sur 10 Sur 0 -- -- 88
2018-10-16 20:00:00 12.6 2 Noroeste 6 Noroeste 0 -- -- 81
2018-10-16 19:00:00 14.1 4 Norte 13 Norte 0 -- -- 70
2018-10-16 18:00:00 14.7 6 Norte 17 Nordeste 0 -- -- 75
2018-10-16 17:00:00 15.5 3 Nordeste 13 Nordeste 0 -- -- 71
2018-10-16 16:00:00 15.1 7 Nordeste 15 Norte 0 -- -- 72
2018-10-16 15:00:00 16.1 5 Norte 11 Nordeste 0 -- -- 66
2018-10-16 14:00:00 14.6 6 Nordeste 12 Nordeste 0 -- -- 75
2018-10-16 13:00:00 12.8 8 Norte 10 Norte 0 -- -- 82
2018-10-16 12:00:00 10.3 5 Nordeste 7 Norte 0 -- -- 90
2018-10-16 11:00:00 7.7 0 Calma 3 Oeste 0 -- -- 100
2018-10-16 10:00:00 5.1 0 Calma 6 Oeste 0 -- -- 100
2018-10-16 09:00:00 5 0 Calma 6 Sudoeste 0 -- -- 100
2018-10-16 08:00:00 5.4 2 Sur 6 Sudoeste 0 -- -- 100
2018-10-16 07:00:00 5.3 0 Calma 2 Sudoeste 0 -- -- 100
2018-10-16 06:00:00 5.1 0 Calma 3 Sudoeste 0 -- -- 100
2018-10-16 05:00:00 5.3 0 Calma 3 Sur 0 -- -- 100
2018-10-16 04:00:00 5.7 0 Calma 3 Sudoeste 0 -- -- 100
2018-10-16 03:00:00 6.1 0 Calma 4 Sur 0 -- -- 100
2018-10-16 02:00:00 6.9 0 Calma 4 Sur 0 -- -- 99
2018-10-16 01:00:00 7.5 6 Sur 12 Sur 0 -- -- 99
2018-10-16 00:00:00 8.1 0 Calma 4 Sudeste 0 -- -- 99
2018-10-15 23:00:00 8.4 4 Sudeste 6 Sur 0 -- -- 98
2018-10-15 22:00:00 8.9 0 Calma 6 Sur 0 -- -- 99
2018-10-15 21:00:00 9.1 2 Norte 5 Nordeste 0 -- -- 99
2018-10-15 20:00:00 9.3 3 Nordeste 11 Nordeste 0 -- -- 98
2018-10-15 19:00:00 10.4 5 Norte 8 Nordeste 0 -- -- 94
2018-10-15 18:00:00 11.3 4 Norte 10 Norte 0 -- -- 91
2018-10-15 17:00:00 11.6 5 Norte 10 Norte 0 -- -- 89
2018-10-15 16:00:00 11.3 5 Norte 10 Norte 0 -- -- 90
2018-10-15 15:00:00 11.2 6 Norte 27 Sudeste 0 -- -- 89
2018-10-15 14:00:00 11.3 14 Sur 28 Sudeste 0 -- -- 84
2018-10-15 13:00:00 9.8 19 Sudeste 38 Sudeste 0 -- -- 86
2018-10-15 12:00:00 8.9 22 Sudeste 44 Sudeste 0.2 -- -- 90
2018-10-15 11:00:00 8.3 27 Sudeste 45 Sudeste 0 -- -- 89
2018-10-15 10:00:00 7.4 26 Sudeste 46 Sudeste 0 -- -- 91
2018-10-15 09:00:00 6.9 30 Sudeste 52 Sudeste 0.4 -- -- 91
2018-10-15 08:00:00 7 36 Sudeste 53 Sur 0 -- -- 91
2018-10-15 07:00:00 7.2 39 Sur 55 Sudeste 0.4 -- -- 93
2018-10-15 06:00:00 7.3 39 Sur 59 Sudeste 0 -- -- 93
2018-10-15 05:00:00 7.5 34 Sur 45 Sur 0 -- -- 89
2018-10-15 04:00:00 6.7 26 Sur 43 Sur 0 -- -- 92
2018-10-15 03:00:00 6.2 16 Sur 39 Sur 0 -- -- 81
2018-10-15 02:00:00 6.1 17 Sur 30 Sur 0 -- -- 81
2018-10-15 01:00:00 6 15 Sur 24 Sur 0 -- -- 87
2018-10-15 00:00:00 5.4 13 Sur 21 Sudoeste 0 -- -- 96
2018-10-14 23:00:00 6.3 9 Sur 19 Sudoeste 0 -- -- 94
2018-10-14 22:00:00 7 2 Oeste 15 Sudoeste 0 -- -- 96
2018-10-14 21:00:00 7.4 5 Sur 11 Sur 0 -- -- 96
2018-10-14 20:00:00 7.7 3 Sur 7 Nordeste 0 -- -- 94
2018-10-14 19:00:00 8.5 0 Calma 5 Noroeste 0 -- -- 87
2018-10-14 18:00:00 8.9 0 Calma 24 Noroeste 0 -- -- 89
2018-10-14 17:00:00 8.6 7 Norte 26 Norte 0 -- -- 92
2018-10-14 16:00:00 7.8 15 Noroeste 28 Noroeste 0 -- -- 96
2018-10-14 15:00:00 7.6 11 Norte 37 Noroeste 1.8 -- -- 98
2018-10-14 14:00:00 7.6 14 Noroeste 42 Noroeste 1 -- -- 99
2018-10-14 13:00:00 7.2 14 Noroeste 35 Noroeste 0.4 -- -- 100
2018-10-14 12:00:00 6.3 9 Noroeste 24 Noroeste 0 -- -- 99
2018-10-14 11:00:00 5.5 7 Norte 27 Nordeste 0 -- -- 100
2018-10-14 10:00:00 5.3 7 Noroeste 22 Noroeste 1.6 -- -- 100
2018-10-14 09:00:00 4.6 0 Calma 7 Noroeste 0.8 -- -- 100
2018-10-14 08:00:00 4.3 4 Norte 18 Norte 0.4 -- -- 98
2018-10-14 07:00:00 4.5 9 Noroeste 26 Noroeste 1.2 -- -- 98
2018-10-14 06:00:00 5.3 13 Noroeste 32 Noroeste 1.8 -- -- 97
2018-10-14 05:00:00 6.7 11 Noroeste 37 Noroeste 2.8 -- -- 98
2018-10-14 04:00:00 7.3 8 Noroeste 25 Sudeste 7 -- -- 98
2018-10-14 03:00:00 7.9 4 Oeste 22 Noroeste 7 -- -- 98
2018-10-14 02:00:00 8 3 Norte 28 Norte 6.6 -- -- 98
2018-10-14 01:00:00 8.7 5 Norte 29 Norte 10.4 -- -- 96
2018-10-14 00:00:00 14.4 8 Norte 48 Sur 0.4 -- -- 83
2018-10-13 23:00:00 17.3 34 Sur 57 Sur 0 -- -- 75
2018-10-13 22:00:00 16.3 14 Sur 32 Sur 0 -- -- 82
2018-10-13 21:00:00 16 9 Sur 23 Sur 0 -- -- 86
2018-10-13 20:00:00 16.7 14 Sur 46 Sudeste 0.4 -- -- 85
2018-10-13 19:00:00 19 14 Sur 41 Sur 0 -- -- 68
2018-10-13 18:00:00 19.7 21 Sur 46 Sudeste 0 -- -- 67
2018-10-13 17:00:00 19.9 29 Sur 46 Sudeste 0 -- -- 66
2018-10-13 16:00:00 18.9 26 Sur 41 Sudeste 0 -- -- 68
2018-10-13 15:00:00 19.5 18 Sur 37 Sur 0 -- -- 66
2018-10-13 14:00:00 20 22 Sur 45 Sur 0 -- -- 64
2018-10-13 13:00:00 19.4 22 Sur 47 Sur 0 -- -- 65
2018-10-13 12:00:00 18.1 22 Sur 50 Sur 0 -- -- 69
2018-10-13 11:00:00 16.4 30 Sur 52 Sudeste 0 -- -- 74
2018-10-13 10:00:00 15.4 33 Sur 59 Sudeste 0 -- -- 78
2018-10-13 09:00:00 15.3 37 Sur 58 Sur 0 -- -- 77
2018-10-13 08:00:00 15.2 24 Sur 62 Sudeste 0 -- -- 76
2018-10-13 07:00:00 15.8 34 Sur 73 Sur 0 -- -- 74
2018-10-13 06:00:00 15.6 53 Sur 75 Sur 0 -- -- 76
2018-10-13 05:00:00 15.9 56 Sur 79 Sur 0 -- -- 75
2018-10-13 04:00:00 16.1 47 Sur 81 Sudeste 0 -- -- 75
2018-10-13 03:00:00 16.2 52 Sur 82 Sur 0 -- -- 75
2018-10-13 02:00:00 15.6 33 Sur 76 Sur 0 -- -- 78
2018-10-13 01:00:00 15.5 50 Sur 75 Sur 0 -- -- 78
2018-10-13 00:00:00 15.6 54 Sur 86 Sur 0 -- -- 78
2018-10-12 23:00:00 15.4 48 Sur 73 Sur 0 -- -- 79
2018-10-12 22:00:00 15.1 30 Sur 55 Sudeste 0 -- -- 81
2018-10-12 21:00:00 15.1 27 Sur 54 Sudeste 0 -- -- 81
2018-10-12 20:00:00 14.9 39 Sur 65 Sur 0 -- -- 81
2018-10-12 19:00:00 14.7 48 Sur 67 Sur 0 -- -- 82
2018-10-12 18:00:00 14.7 32 Sur 67 Sur 0 -- -- 80
2018-10-12 17:00:00 15.5 38 Sur 68 Sudeste 0 -- -- 76
2018-10-12 16:00:00 15.6 38 Sur 81 Sudeste 0 -- -- 78
2018-10-12 15:00:00 15.4 39 Sur 71 Sur 0 -- -- 77
2018-10-12 14:00:00 16.3 51 Sur 79 Sur 0 -- -- 72
2018-10-12 13:00:00 16.3 44 Sur 73 Sur 0 -- -- 74
2018-10-12 12:00:00 15 44 Sur 75 Sudeste 0 -- -- 75
2018-10-12 11:00:00 13.8 43 Sur 67 Sur 0 -- -- 77
2018-10-12 10:00:00 12.7 29 Sur 50 Sur 0 -- -- 79
2018-10-12 09:00:00 11.8 26 Sur 66 Sur 0 -- -- 81
2018-10-12 08:00:00 11.4 21 Sur 50 Sudoeste 0 -- -- 82
2018-10-12 07:00:00 11 28 Sudoeste 63 Sur 0 -- -- 81
2018-10-12 06:00:00 11 30 Sur 66 Sudoeste 0 -- -- 75
2018-10-12 05:00:00 11 32 Sur 68 Sudoeste 0 -- -- 74
2018-10-12 04:00:00 11.2 45 Sur 73 Sudoeste 0 -- -- 72
2018-10-12 03:00:00 11.2 39 Sur 64 Sur 0 -- -- 60
2018-10-12 02:00:00 10.8 29 Sur 65 Sur 0 -- -- 62
2018-10-12 01:00:00 11.2 44 Sur 66 Sur 0 -- -- 66
2018-10-12 00:00:00 11.2 30 Sur 52 Sur 0 -- -- 70
2018-10-11 23:00:00 11.3 33 Sur 70 Sudoeste 0 -- -- 70
2018-10-11 22:00:00 11.5 35 Sudoeste 71 Sur 0 -- -- 74
2018-10-11 21:00:00 11.7 30 Sur 67 Sudeste 0 -- -- 76
2018-10-11 20:00:00 12.2 26 Sudoeste 50 Sudoeste 0 -- -- 74
2018-10-11 19:00:00 13 27 Sur 50 Sur 0 -- -- 74
2018-10-11 18:00:00 13.5 28 Sur 44 Sur 0 -- -- 71
2018-10-11 17:00:00 13.8 17 Sur 42 Sur 0 -- -- 69
2018-10-11 16:00:00 14.4 21 Sur 31 Sur 0 -- -- 74
2018-10-11 15:00:00 13.8 12 Sudoeste 35 Sudoeste 0 -- -- 73
2018-10-11 14:00:00 13.1 20 Sudoeste 35 Sur 0 -- -- 75
2018-10-11 13:00:00 11.9 11 Sudoeste 29 Sur 0 -- -- 85
2018-10-11 12:00:00 11.3 16 Sudoeste 31 Sudoeste 0 -- -- 89
2018-10-11 11:00:00 11.7 20 Sudoeste 35 Sur 0.4 -- -- 91
2018-10-11 10:00:00 11.2 12 Sudoeste 44 Sudoeste 0.6 -- -- 97
2018-10-11 09:00:00 11.1 28 Sur 58 Sudoeste 2 -- -- 96
2018-10-11 08:00:00 11 40 Sur 103 Sur 2.6 -- -- 94
2018-10-11 07:00:00 10.9 59 Sur 88 Sudeste 3.2 -- -- 93
2018-10-11 06:00:00 11 54 Sur 89 Sur 0.6 -- -- 89
2018-10-11 05:00:00 11.1 46 Sur 71 Sudeste 0 -- -- 89
2018-10-11 04:00:00 12.3 47 Sur 78 Sur 0 -- -- 81
2018-10-11 03:00:00 12.2 43 Sur 76 Sur 0 -- -- 81
2018-10-11 02:00:00 13 20 Sudoeste 60 Sudeste 0 -- -- 78
2018-10-11 01:00:00 13.5 39 Sur 84 Sur 0 -- -- 70
2018-10-11 00:00:00 13.7 46 Sur 78 Sur 0 -- -- 68
2018-10-10 23:00:00 13.7 42 Sur 78 Sur 0 -- -- 67
2018-10-10 22:00:00 13.9 45 Sur 64 Sur 0 -- -- 65
2018-10-10 21:00:00 14.3 33 Sur 59 Sur 0 -- -- 63
2018-10-10 20:00:00 15.3 20 Sur 42 Sudoeste 0 -- -- 58
2018-10-10 19:00:00 16.5 27 Sur 53 Sudoeste 0 -- -- 52
2018-10-10 18:00:00 16.9 29 Sudoeste 50 Sur 0 -- -- 49
2018-10-10 17:00:00 19.1 30 Sur 59 Sur 0 -- -- 44
2018-10-10 16:00:00 19.6 30 Sur 57 Sur 0 -- -- 43
2018-10-10 15:00:00 19.2 39 Sur 57 Sur 0 -- -- 42
2018-10-10 14:00:00 18.7 35 Sur 65 Sudeste 0 -- -- 43
2018-10-10 13:00:00 18 22 Sur 42 Sur 0 -- -- 45
2018-10-10 12:00:00 16.6 19 Sur 40 Sur 0 -- -- 51
2018-10-10 11:00:00 13.7 26 Sudeste 37 Sudeste 0 -- -- 59
2018-10-10 10:00:00 10 9 Sur 18 Sur 0 -- -- 72
2018-10-10 09:00:00 7.6 0 Calma 6 Oeste 0 -- -- 78
2018-10-10 08:00:00 6.6 0 Calma 13 Nordeste 0 -- -- 82
2018-10-10 07:00:00 7.1 0 Calma 8 Norte 0 -- -- 77
2018-10-10 06:00:00 8.7 2 Sudoeste 17 Sur 0 -- -- 69
2018-10-10 05:00:00 9.5 0 Calma 19 Sudeste 0 -- -- 68
2018-10-10 04:00:00 10.4 10 Sudeste 21 Sudeste 0 -- -- 62
2018-10-10 03:00:00 11.1 8 Sudeste 27 Sudeste 0 -- -- 58
2018-10-10 02:00:00 12 16 Sudeste 29 Sudeste 0 -- -- 55
2018-10-10 01:00:00 12.9 16 Sudeste 26 Sudeste 0 -- -- 52
2018-10-10 00:00:00 12 13 Sudeste 24 Sudeste 0 -- -- 55
2018-10-09 23:00:00 10.8 9 Sur 19 Sudeste 0 -- -- 68
2018-10-09 22:00:00 11.8 7 Sur 18 Sudeste 0 -- -- 63
2018-10-09 21:00:00 13.6 8 Sudeste 15 Sudeste 0 -- -- 55
2018-10-09 20:00:00 15.8 0 Calma 8 Noroeste 0 -- -- 57
2018-10-09 19:00:00 17.5 4 Norte 11 Norte 0 -- -- 53
2018-10-09 18:00:00 18.9 4 Noroeste 10 Noroeste 0 -- -- 49
2018-10-09 17:00:00 18.6 3 Sur 15 Norte 0 -- -- 47
2018-10-09 16:00:00 19.5 6 Norte 14 Norte 0 -- -- 47
2018-10-09 15:00:00 20.7 4 Oeste 14 Sudoeste 0 -- -- 44
2018-10-09 14:00:00 18.1 4 Noroeste 10 Nordeste 0 -- -- 50
2018-10-09 13:00:00 15.1 5 Nordeste 10 Nordeste 0 -- -- 62
2018-10-09 12:00:00 12.4 5 Norte 9 Nordeste 0 -- -- 72
2018-10-09 11:00:00 10.6 0 Calma 4 Sur 0 -- -- 79
2018-10-09 10:00:00 4.7 2 Sudoeste 5 Sur 0 -- -- 99
2018-10-09 09:00:00 3.3 2 Sur 4 Sudoeste 0 -- -- 98
2018-10-09 08:00:00 3.6 2 Sudoeste 5 Sudoeste 0 -- -- 98
2018-10-09 07:00:00 3.9 0 Calma 5 Sudoeste 0 -- -- 98
2018-10-09 06:00:00 4.1 2 Sudoeste 5 Sur 0 -- -- 96
2018-10-09 05:00:00 4.5 0 Calma 5 Sur 0 -- -- 97
2018-10-09 04:00:00 4.7 4 Sur 5 Sur 0 -- -- 93
2018-10-09 03:00:00 5.2 3 Sudoeste 9 Sur 0 -- -- 93
2018-10-09 02:00:00 5.8 4 Sur 6 Sur 0 -- -- 92
2018-10-09 01:00:00 6.6 2 Sur 5 Sudoeste 0 -- -- 89
2018-10-09 00:00:00 7.4 2 Sudoeste 4 Sur 0 -- -- 88
2018-10-08 23:00:00 8.4 4 Sudoeste 5 Sudoeste 0 -- -- 82
2018-10-08 22:00:00 9.8 0 Calma 6 Sudoeste 0 -- -- 75
2018-10-08 21:00:00 11.8 4 Sur 12 Sur 0 -- -- 70
2018-10-08 20:00:00 14.7 2 Sur 8 Norte 0 -- -- 61
2018-10-08 19:00:00 16.4 6 Norte 13 Nordeste 0 -- -- 53
2018-10-08 18:00:00 17.5 6 Norte 15 Nordeste 0 -- -- 50
2018-10-08 17:00:00 18.8 8 Norte 14 Norte 0 -- -- 46
2018-10-08 16:00:00 18.4 7 Norte 16 Norte 0 -- -- 47
2018-10-08 15:00:00 18.4 6 Norte 14 Noroeste 0 -- -- 47
2018-10-08 14:00:00 16.5 5 Norte 15 Nordeste 0 -- -- 51
2018-10-08 13:00:00 13.7 9 Norte 14 Norte 0 -- -- 59
2018-10-08 12:00:00 10.1 9 Nordeste 12 Norte 0 -- -- 68
2018-10-08 11:00:00 7.3 4 Norte 6 Norte 0 -- -- 76
2018-10-08 10:00:00 3.1 2 Sudeste 5 Sur 0 -- -- 100
2018-10-08 09:00:00 1 2 Sur 5 Sur 0 -- -- 99
2018-10-08 08:00:00 1.1 2 Sudoeste 6 Sudoeste 0 -- -- 99
2018-10-08 07:00:00 1.3 0 Calma 4 Sudoeste 0 -- -- 98
2018-10-08 06:00:00 1.7 0 Calma 6 Sudoeste 0 -- -- 98
2018-10-08 05:00:00 1.7 3 Sur 6 Sur 0 -- -- 97
2018-10-08 04:00:00 2 2 Sudoeste 4 Sudoeste 0 -- -- 96
2018-10-08 03:00:00 2.4 0 Calma 6 Sudoeste 0 -- -- 95
2018-10-08 02:00:00 3 0 Calma 6 Sudoeste 0 -- -- 94
2018-10-08 01:00:00 3.4 3 Sudoeste 6 Sudoeste 0 -- -- 92
2018-10-08 00:00:00 4.2 2 Sudoeste 6 Sudoeste 0 -- -- 89
2018-10-07 23:00:00 5.1 2 Sudoeste 8 Sur 0 -- -- 85
2018-10-07 22:00:00 6.4 5 Sur 8 Sur 0 -- -- 79
2018-10-07 21:00:00 8.3 5 Sur 8 Sur 0 -- -- 74
2018-10-07 20:00:00 10.7 3 Norte 15 Sudoeste 0 -- -- 63
2018-10-07 19:00:00 13 4 Oeste 17 Nordeste 0 -- -- 56
2018-10-07 18:00:00 13.9 10 Norte 21 Norte 0 -- -- 48
2018-10-07 17:00:00 14.6 9 Norte 21 Nordeste 0 -- -- 47
2018-10-07 16:00:00 14.2 10 Norte 24 Norte 0 -- -- 50
2018-10-07 15:00:00 13.5 8 Nordeste 35 Nordeste 0 -- -- 52
2018-10-07 14:00:00 11.8 13 Nordeste 31 Norte 0 -- -- 54
2018-10-07 13:00:00 10.4 14 Nordeste 29 Nordeste 0 -- -- 61
2018-10-07 12:00:00 9.6 6 Nordeste 21 Nordeste 0 -- -- 66
2018-10-07 11:00:00 7.5 4 Nordeste 12 Nordeste 0 -- -- 78
2018-10-07 10:00:00 3.1 0 Calma 7 Nordeste 0 -- -- 100
2018-10-07 09:00:00 0.8 0 Calma 5 Sudeste 0 -- -- 99
2018-10-07 08:00:00 1.4 0 Calma 5 Sur 0 -- -- 99
2018-10-07 07:00:00 1.8 3 Sur 4 Sur 0 -- -- 98
2018-10-07 06:00:00 1.9 2 Sur 5 Sudoeste 0 -- -- 95
2018-10-07 05:00:00 2.7 2 Sur 5 Sur 0 -- -- 94
2018-10-07 04:00:00 3.5 0 Calma 4 Sudeste 0 -- -- 92
2018-10-07 03:00:00 3.5 0 Calma 13 Norte 0 -- -- 93
2018-10-07 02:00:00 3.8 4 Nordeste 13 Nordeste 0 -- -- 93
2018-10-07 01:00:00 4.1 3 Nordeste 8 Nordeste 0 -- -- 94
2018-10-07 00:00:00 4.5 0 Calma 12 Nordeste 0 -- -- 95
2018-10-06 23:00:00 5.1 3 Nordeste 15 Nordeste 0 -- -- 94
2018-10-06 22:00:00 6.2 4 Nordeste 18 Norte 0 -- -- 93
2018-10-06 21:00:00 7 5 Norte 16 Norte 0 -- -- 93
2018-10-06 20:00:00 8 4 Nordeste 12 Nordeste 0 -- -- 93
2018-10-06 19:00:00 8.4 2 Norte 13 Norte 0 -- -- 92
2018-10-06 18:00:00 8.1 8 Norte 21 Norte 0.2 -- -- 95
2018-10-06 17:00:00 9 6 Norte 24 Norte 0 -- -- 96
2018-10-06 16:00:00 9.6 13 Norte 26 Noroeste 0 -- -- 93
2018-10-06 15:00:00 14 5 Oeste 17 Oeste 0 -- -- 74
2018-10-06 14:00:00 15.3 5 Oeste 21 Sudoeste 0 -- -- 66
2018-10-06 13:00:00 15.9 6 Sudoeste 14 Oeste 0 -- -- 61
2018-10-06 12:00:00 15.1 5 Sudoeste 14 Sudoeste 0 -- -- 66
2018-10-06 11:00:00 12.3 7 Noroeste 17 Oeste 0 -- -- 75
2018-10-06 10:00:00 10.8 6 Sur 20 Norte 0 -- -- 76
2018-10-06 09:00:00 10.2 3 Oeste 9 Oeste 0 -- -- 73
2018-10-06 08:00:00 9.9 3 Sudoeste 9 Sudoeste 0 -- -- 77
2018-10-06 07:00:00 11.3 4 Sudoeste 19 Sudoeste 0 -- -- 69
2018-10-06 06:00:00 11.7 9 Sudoeste 20 Sur 0 -- -- 67
2018-10-06 05:00:00 10.7 4 Sur 10 Sur 0 -- -- 62
2018-10-06 04:00:00 9.7 5 Sudoeste 13 Sudoeste 0 -- -- 65
2018-10-06 03:00:00 9.2 4 Sudoeste 7 Sur 0 -- -- 65
2018-10-06 02:00:00 9.1 3 Sudoeste 7 Sudoeste 0 -- -- 69
2018-10-06 01:00:00 9.6 4 Sur 7 Sur 0 -- -- 72
2018-10-06 00:00:00 10.4 5 Sur 9 Sur 0 -- -- 71
2018-10-05 23:00:00 11.8 4 Sudoeste 12 Sudeste 0 -- -- 75
2018-10-05 22:00:00 13 3 Sur 10 Sudoeste 0 -- -- 65
2018-10-05 21:00:00 15.4 3 Sur 17 Sudoeste 0 -- -- 56
2018-10-05 20:00:00 18.3 6 Sur 19 Oeste 0 -- -- 49
2018-10-05 19:00:00 21 6 Oeste 19 Oeste 0 -- -- 41
2018-10-05 18:00:00 22.8 6 Oeste 21 Sudoeste 0 -- -- 38
2018-10-05 17:00:00 25.9 8 Sudoeste 23 Sudoeste 0 -- -- 32
2018-10-05 16:00:00 25.5 14 Sudoeste 27 Oeste 0 -- -- 29
2018-10-05 15:00:00 25.5 10 Oeste 23 Sudoeste 0 -- -- 27
2018-10-05 14:00:00 24.9 7 Sudoeste 18 Sudoeste 0 -- -- 25
2018-10-05 13:00:00 22.2 4 Sudoeste 10 Oeste 0 -- -- 36
2018-10-05 12:00:00 19.9 0 Calma 5 Sur 0 -- -- 50
2018-10-05 11:00:00 14.4 0 Calma 9 Sudoeste 0 -- -- 71
2018-10-05 10:00:00 9.9 3 Sudoeste 8 Oeste 0 -- -- 87
2018-10-05 09:00:00 7.6 3 Sur 8 Sudoeste 0 -- -- 93
2018-10-05 08:00:00 8.1 3 Sudoeste 7 Sudoeste 0 -- -- 93
2018-10-05 07:00:00 8.5 3 Sudoeste 7 Sudoeste 0 -- -- 91
2018-10-05 06:00:00 8.8 4 Sudoeste 8 Sudoeste 0 -- -- 91
2018-10-05 05:00:00 9.2 4 Sudoeste 9 Oeste 0 -- -- 90
2018-10-05 04:00:00 9.5 4 Sudoeste 9 Oeste 0 -- -- 88
2018-10-05 03:00:00 9.9 3 Sudoeste 11 Sudoeste 0 -- -- 86
2018-10-05 02:00:00 10.3 4 Sudoeste 9 Oeste 0 -- -- 83
2018-10-05 01:00:00 11.1 4 Sudoeste 9 Sudoeste 0 -- -- 80
2018-10-05 00:00:00 12 5 Sudoeste 9 Sur 0 -- -- 75
2018-10-04 23:00:00 13 4 Sur 12 Sur 0 -- -- 69
2018-10-04 22:00:00 14.5 5 Sur 17 Sur 0 -- -- 62
2018-10-04 21:00:00 16.4 10 Sur 16 Sur 0 -- -- 55
2018-10-04 20:00:00 20.3 4 Sur 9 Noroeste 0 -- -- 49
2018-10-04 19:00:00 22.3 5 Noroeste 13 Noroeste 0 -- -- 36
2018-10-04 18:00:00 23.6 4 Noroeste 20 Oeste 0 -- -- 37
2018-10-04 17:00:00 25.1 6 Norte 15 Noroeste 0 -- -- 36
2018-10-04 16:00:00 24.8 5 Nordeste 16 Norte 0 -- -- 36
2018-10-04 15:00:00 24.5 8 Norte 16 Norte 0 -- -- 36
2018-10-04 14:00:00 24.2 7 Nordeste 18 Nordeste 0 -- -- 39
2018-10-04 13:00:00 23.3 7 Nordeste 12 Nordeste 0 -- -- 40
2018-10-04 12:00:00 20.7 2 Norte 5 Norte 0 -- -- 47
2018-10-04 11:00:00 15.1 0 Calma 9 Sudoeste 0 -- -- 66
2018-10-04 10:00:00 10.3 4 Sudoeste 7 Sudoeste 0 -- -- 81
2018-10-04 09:00:00 7.8 4 Sudoeste 8 Sudoeste 0 -- -- 89
2018-10-04 08:00:00 7.7 4 Sudoeste 8 Sudoeste 0 -- -- 88
2018-10-04 07:00:00 7.9 3 Sudoeste 8 Sudoeste 0 -- -- 88
2018-10-04 06:00:00 8.1 3 Sudoeste 7 Sudoeste 0 -- -- 85
2018-10-04 05:00:00 8.4 4 Sudoeste 7 Oeste 0 -- -- 86
2018-10-04 04:00:00 8.9 3 Sudoeste 5 Sur 0 -- -- 84
2018-10-04 03:00:00 9.6 3 Sudoeste 5 Sudoeste 0 -- -- 82
2018-10-04 02:00:00 10.3 3 Sudoeste 5 Sudoeste 0 -- -- 78
2018-10-04 01:00:00 11.1 4 Sudoeste 7 Sudoeste 0 -- -- 77
2018-10-04 00:00:00 12.2 3 Sudoeste 5 Sudoeste 0 -- -- 77
2018-10-03 23:00:00 13.8 3 Sur 7 Sudoeste 0 -- -- 67
2018-10-03 22:00:00 15.5 4 Sudoeste 10 Sur 0 -- -- 66
2018-10-03 21:00:00 17.6 8 Sur 13 Sur 0 -- -- 58
2018-10-03 20:00:00 21.2 4 Sur 9 Sur 0 -- -- 50
2018-10-03 19:00:00 23.4 4 Noroeste 12 Noroeste 0 -- -- 43
2018-10-03 18:00:00 25.2 5 Oeste 17 Oeste 0 -- -- 37
2018-10-03 17:00:00 26.9 8 Oeste 20 Sudoeste 0 -- -- 36
2018-10-03 16:00:00 25.6 7 Norte 14 Norte 0 -- -- 35
2018-10-03 15:00:00 24.7 8 Norte 13 Nordeste 0 -- -- 39
2018-10-03 14:00:00 22.4 7 Norte 15 Nordeste 0 -- -- 41
2018-10-03 13:00:00 19.9 6 Nordeste 13 Norte 0 -- -- 47
2018-10-03 12:00:00 17.2 4 Nordeste 8 Nordeste 0 -- -- 49
2018-10-03 11:00:00 12.9 0 Calma 5 Sur 0 -- -- 61
2018-10-03 10:00:00 8.2 2 Sur 5 Sudoeste 0 -- -- 72
2018-10-03 09:00:00 4.8 3 Sudoeste 7 Sur 0 -- -- 86
2018-10-03 08:00:00 4.7 3 Sudoeste 5 Sur 0 -- -- 84
2018-10-03 07:00:00 5.2 3 Sudoeste 6 Oeste 0 -- -- 85
2018-10-03 06:00:00 5.6 3 Sudoeste 5 Sudoeste 0 -- -- 84
2018-10-03 05:00:00 6 3 Sudoeste 7 Sudoeste 0 -- -- 78
2018-10-03 04:00:00 6.5 2 Sudoeste 7 Sudeste 0 -- -- 82
2018-10-03 03:00:00 7.1 3 Sudoeste 8 Oeste 0 -- -- 74
2018-10-03 02:00:00 7.6 4 Sur 6 Sudoeste 0 -- -- 72
2018-10-03 01:00:00 8.4 3 Sudoeste 8 Sudoeste 0 -- -- 75
2018-10-03 00:00:00 9.5 3 Sudoeste 8 Sudoeste 0 -- -- 64
2018-10-02 23:00:00 10.6 2 Sudoeste 8 Sudoeste 0 -- -- 66
2018-10-02 22:00:00 12.4 4 Sur 10 Sur 0 -- -- 54
2018-10-02 21:00:00 15.1 4 Sur 12 Sudoeste 0 -- -- 52
2018-10-02 20:00:00 18.5 2 Sur 6 Norte 0 -- -- 46
2018-10-02 19:00:00 20.7 3 Norte 14 Noroeste 0 -- -- 35
2018-10-02 18:00:00 23.5 4 Oeste 19 Sudeste 0 -- -- 26
2018-10-02 17:00:00 25.1 11 Sur 24 Sur 0 -- -- 17
2018-10-02 16:00:00 24.1 12 Sudeste 28 Sur 0 -- -- 19
2018-10-02 15:00:00 23.5 12 Sudeste 23 Sudeste 0 -- -- 17
2018-10-02 14:00:00 19.9 5 Nordeste 14 Norte 0 -- -- 37
2018-10-02 13:00:00 16.5 8 Nordeste 14 Nordeste 0 -- -- 44
2018-10-02 12:00:00 13.1 5 Nordeste 11 Nordeste 0 -- -- 62
2018-10-02 11:00:00 9.4 6 Nordeste 10 Norte 0 -- -- 75
2018-10-02 10:00:00 6.8 0 Calma 8 Sur 0 -- -- 82
2018-10-02 09:00:00 3.7 0 Calma 6 Sudoeste 0 -- -- 94
2018-10-02 08:00:00 4.1 3 Sur 5 Sur 0 -- -- 91
2018-10-02 07:00:00 5 2 Sudoeste 5 Sudoeste 0 -- -- 94
2018-10-02 06:00:00 5.7 2 Sur 5 Sur 0 -- -- 86
2018-10-02 05:00:00 6.8 0 Calma 5 Sudoeste 0 -- -- 86
2018-10-02 04:00:00 6.8 2 Sudoeste 8 Sudeste 0 -- -- 82
2018-10-02 03:00:00 7.6 3 Sudoeste 9 Sudoeste 0 -- -- 85
2018-10-02 02:00:00 8.2 3 Sur 9 Sudoeste 0 -- -- 76
2018-10-02 01:00:00 9.2 2 Sudoeste 8 Sur 0 -- -- 83
2018-10-02 00:00:00 9.8 4 Sudoeste 6 Sur 0 -- -- 80
2018-10-01 23:00:00 10.9 2 Sur 6 Sudeste 0 -- -- 75
2018-10-01 22:00:00 12.4 3 Sur 11 Sur 0 -- -- 68
2018-10-01 21:00:00 14.6 3 Sur 8 Sur 0 -- -- 65
2018-10-01 20:00:00 16.9 3 Norte 14 Norte 0 -- -- 56
2018-10-01 19:00:00 18.8 6 Norte 20 Nordeste 0 -- -- 49
2018-10-01 18:00:00 19.9 11 Norte 28 Norte 0 -- -- 43
2018-10-01 17:00:00 20.4 14 Norte 31 Nordeste 0 -- -- 31
2018-10-01 16:00:00 20.5 11 Norte 25 Norte 0 -- -- 35
2018-10-01 15:00:00 20.4 7 Norte 19 Norte 0 -- -- 32
2018-10-01 14:00:00 17.4 11 Norte 21 Norte 0 -- -- 49
2018-10-01 13:00:00 15.6 8 Norte 16 Nordeste 0 -- -- 57
2018-10-01 12:00:00 13.3 4 Norte 12 Norte 0 -- -- 67
2018-10-01 11:00:00 10.9 0 Calma 5 Este 0 -- -- 71
2018-10-01 10:00:00 7 0 Calma 4 Sur 0 -- -- 83
2018-10-01 09:00:00 4.1 2 Sudoeste 5 Sudoeste 0 -- -- 92
2018-10-01 08:00:00 4.6 3 Sur 7 Sur 0 -- -- 89
2018-10-01 07:00:00 5.1 3 Sur 6 Sur 0 -- -- 83
2018-10-01 06:00:00 5.9 0 Calma 8 Sudoeste 0 -- -- 90
2018-10-01 05:00:00 6.7 0 Calma 6 Sur 0 -- -- 86
2018-10-01 04:00:00 8 2 Sudoeste 5 Oeste 0 -- -- 81
2018-10-01 03:00:00 9.2 0 Calma 6 Sur 0 -- -- 75
2018-10-01 02:00:00 10.3 3 Sur 5 Sur 0 -- -- 70
2018-10-01 01:00:00 11 3 Sur 9 Sudeste 0 -- -- 72
2018-10-01 00:00:00 11.1 4 Sur 8 Sur 0 -- -- 64
2018-09-30 23:00:00 12.3 5 Sur 8 Sur 0 -- -- 61
2018-09-30 22:00:00 13.7 2 Nordeste 6 Nordeste 0 -- -- 61
2018-09-30 21:00:00 15.7 2 Norte 14 Nordeste 0 -- -- 53
2018-09-30 20:00:00 18.8 3 Norte 25 Norte 0 -- -- 50
2018-09-30 19:00:00 20.4 10 Norte 26 Norte 0 -- -- 50
2018-09-30 18:00:00 21.6 10 Norte 29 Norte 0 -- -- 47
2018-09-30 17:00:00 23 11 Norte 22 Norte 0 -- -- 46
2018-09-30 16:00:00 23.4 11 Norte 25 Norte 0 -- -- 44
2018-09-30 15:00:00 24 8 Norte 25 Nordeste 0 -- -- 41
2018-09-30 14:00:00 24.1 6 Nordeste 23 Nordeste 0 -- -- 42
2018-09-30 13:00:00 23 7 Nordeste 19 Nordeste 0 -- -- 44
2018-09-30 12:00:00 21.3 5 Nordeste 11 Nordeste 0 -- -- 44
2018-09-30 11:00:00 15.4 3 Sur 6 Sudoeste 0 -- -- 70
2018-09-30 10:00:00 11.4 3 Sudoeste 9 Oeste 0 -- -- 83
2018-09-30 09:00:00 9.1 4 Sudoeste 9 Sudoeste 0 -- -- 93
2018-09-30 08:00:00 9.4 4 Sudoeste 9 Oeste 0 -- -- 93
2018-09-30 07:00:00 9.8 4 Sudoeste 8 Sudoeste 0 -- -- 94
2018-09-30 06:00:00 10.3 4 Sudoeste 8 Sudoeste 0 -- -- 93
2018-09-30 05:00:00 10.7 4 Sudoeste 9 Sudoeste 0 -- -- 93
2018-09-30 04:00:00 11.2 4 Sudoeste 9 Oeste 0 -- -- 92
2018-09-30 03:00:00 11.7 4 Sudoeste 7 Sudoeste 0 -- -- 91
2018-09-30 02:00:00 12.4 4 Sudoeste 8 Sudoeste 0 -- -- 88
2018-09-30 01:00:00 13.1 4 Sudoeste 7 Sudoeste 0 -- -- 86
2018-09-30 00:00:00 14 3 Sudoeste 5 Sudoeste 0 -- -- 81
2018-09-29 23:00:00 14.9 5 Sudoeste 10 Sudoeste 0 -- -- 77
2018-09-29 22:00:00 16.2 5 Sur 13 Sur 0 -- -- 71
2018-09-29 21:00:00 18.1 5 Sur 11 Sur 0 -- -- 65
2018-09-29 20:00:00 21.1 4 Sur 9 Sur 0 -- -- 59
2018-09-29 19:00:00 22.5 3 Sudeste 11 Nordeste 0 -- -- 55
2018-09-29 18:00:00 23.5 6 Norte 15 Norte 0 -- -- 49
2018-09-29 17:00:00 25.4 8 Norte 21 Norte 0 -- -- 40
2018-09-29 16:00:00 25.9 7 Norte 20 Nordeste 0 -- -- 38
2018-09-29 15:00:00 25.4 6 Norte 15 Norte 0 -- -- 40
2018-09-29 14:00:00 23 4 Nordeste 12 Norte 0 -- -- 56
2018-09-29 13:00:00 21.9 7 Norte 11 Nordeste 0 -- -- 59
2018-09-29 12:00:00 19.5 4 Nordeste 7 Norte 0 -- -- 66
2018-09-29 11:00:00 16.3 0 Calma 4 Sur 0 -- -- 79
2018-09-29 10:00:00 12.4 0 Calma 4 Sur 0 -- -- 94
2018-09-29 09:00:00 10.2 2 Sur 5 Oeste 0 -- -- 97
2018-09-29 08:00:00 10.5 3 Sudoeste 5 Sudoeste 0 -- -- 97
2018-09-29 07:00:00 10.9 2 Sudoeste 5 Sur 0 -- -- 96
2018-09-29 06:00:00 11.3 2 Sudoeste 5 Oeste 0 -- -- 96
2018-09-29 05:00:00 11.8 3 Sur 5 Sur 0 -- -- 94
2018-09-29 04:00:00 12.3 0 Calma 6 Sudoeste 0 -- -- 94
2018-09-29 03:00:00 12.7 3 Sudoeste 9 Sudoeste 0 -- -- 93
2018-09-29 02:00:00 13.1 3 Sudoeste 6 Sur 0 -- -- 92
2018-09-29 01:00:00 13.7 2 Sudoeste 7 Sudoeste 0 -- -- 90
2018-09-29 00:00:00 14.7 4 Sudoeste 8 Sudoeste 0 -- -- 87
2018-09-28 23:00:00 15.7 2 Sudoeste 8 Sur 0 -- -- 83
2018-09-28 22:00:00 17.1 4 Sur 11 Sudeste 0 -- -- 75
2018-09-28 21:00:00 19.3 5 Sur 10 Sur 0 -- -- 69
2018-09-28 20:00:00 21.9 0 Calma 8 Norte 0 -- -- 60
2018-09-28 19:00:00 23.1 4 Norte 11 Norte 0 -- -- 55
2018-09-28 18:00:00 24 7 Norte 15 Norte 0 -- -- 52
2018-09-28 17:00:00 24.8 8 Norte 15 Norte 0 -- -- 54
2018-09-28 16:00:00 24 8 Norte 16 Nordeste 0 -- -- 56
2018-09-28 15:00:00 23.7 8 Norte 15 Nordeste 0 -- -- 55
2018-09-28 14:00:00 25.8 5 Sudoeste 11 Oeste 0 -- -- 48
2018-09-28 13:00:00 21.9 6 Norte 12 Norte 0 -- -- 67
2018-09-28 12:00:00 18.8 8 Norte 11 Norte 0 -- -- 73
2018-09-28 11:00:00 16.6 0 Calma 4 Sudoeste 0 -- -- 86
2018-09-28 10:00:00 13.5 3 Sudoeste 11 Sudoeste 0 -- -- 95
2018-09-28 09:00:00 11.1 3 Sudoeste 7 Sudoeste 0 -- -- 98
2018-09-28 08:00:00 11.2 0 Calma 5 Sudoeste 0 -- -- 98
2018-09-28 07:00:00 11.4 3 Sur 5 Sur 0 -- -- 96
2018-09-28 06:00:00 11.9 0 Calma 5 Sudoeste 0 -- -- 97
2018-09-28 05:00:00 12.3 3 Sudoeste 7 Sudoeste 0 -- -- 97
2018-09-28 04:00:00 12.7 3 Sudoeste 7 Sudoeste 0 -- -- 97
2018-09-28 03:00:00 13 3 Sur 6 Sur 0 -- -- 96
2018-09-28 02:00:00 13.4 3 Sur 5 Sudoeste 0 -- -- 93
2018-09-28 01:00:00 14.1 4 Sur 6 Sudoeste 0 -- -- 91
2018-09-28 00:00:00 15 2 Sur 4 Sur 0 -- -- 93
2018-09-27 23:00:00 15.7 4 Sudoeste 6 Sudoeste 0 -- -- 88
2018-09-27 22:00:00 16.4 2 Sur 8 Sudeste 0 -- -- 89
2018-09-27 21:00:00 17.1 3 Sur 8 Sur 0 -- -- 86
2018-09-27 20:00:00 17.6 4 Sudeste 10 Nordeste 0.2 -- -- 86
2018-09-27 19:00:00 18.5 6 Norte 24 Sudeste 0 -- -- 67
2018-09-27 18:00:00 23.5 6 Noroeste 16 Noroeste 0 -- -- 53
2018-09-27 17:00:00 27.3 3 Sudoeste 18 Sudoeste 0 -- -- 45
2018-09-27 16:00:00 27.5 9 Oeste 18 Oeste 0 -- -- 43
2018-09-27 15:00:00 24.6 5 Oeste 13 Sudoeste 0 -- -- 49
2018-09-27 14:00:00 21.3 6 Oeste 33 Oeste 0 -- -- 65
2018-09-27 13:00:00 20.2 10 Sudoeste 37 Sudeste 0 -- -- 57
2018-09-27 12:00:00 22.8 3 Sudoeste 7 Sudoeste 0 -- -- 57
2018-09-27 11:00:00 19.2 4 Sur 9 Norte 0 -- -- 71
2018-09-27 10:00:00 16.6 4 Norte 6 Nordeste 0 -- -- 83
2018-09-27 09:00:00 15.6 3 Sur 6 Sur 0 -- -- 83
2018-09-27 08:00:00 15.5 0 Calma 15 Norte 0 -- -- 77
2018-09-27 07:00:00 17.5 6 Nordeste 31 Sur 0 -- -- 73
2018-09-27 06:00:00 17.1 2 Oeste 13 Sur 0 -- -- 72
2018-09-27 05:00:00 15.2 4 Sudoeste 11 Oeste 0 -- -- 77
2018-09-27 04:00:00 13.8 2 Oeste 7 Sudoeste 0 -- -- 77
2018-09-27 03:00:00 13.7 2 Sur 10 Sudoeste 0 -- -- 78
2018-09-27 02:00:00 14 4 Sudoeste 6 Oeste 0 -- -- 77
2018-09-27 01:00:00 14.7 3 Sudoeste 6 Oeste 0 -- -- 74
2018-09-27 00:00:00 15.6 3 Sudoeste 8 Sudoeste 0 -- -- 72
2018-09-26 23:00:00 17 3 Sudoeste 9 Oeste 0 -- -- 65
2018-09-26 22:00:00 18.4 3 Sudoeste 9 Sur 0 -- -- 62
2018-09-26 21:00:00 20.7 2 Sudoeste 10 Sudeste 0 -- -- 53
2018-09-26 20:00:00 23.2 4 Sur 9 Sudeste 0 -- -- 47
2018-09-26 19:00:00 25.8 4 Sudoeste 17 Oeste 0 -- -- 42
2018-09-26 18:00:00 27.4 7 Sudoeste 19 Sudoeste 0 -- -- 36
2018-09-26 17:00:00 29.3 10 Sur 20 Sur 0 -- -- 32
2018-09-26 16:00:00 29.4 10 Sudoeste 22 Sudoeste 0 -- -- 32
2018-09-26 15:00:00 28.8 13 Sur 23 Sudoeste 0 -- -- 32
2018-09-26 14:00:00 27.4 11 Sur 21 Sudoeste 0 -- -- 35
2018-09-26 13:00:00 22 3 Norte 11 Norte 0 -- -- 50
2018-09-26 12:00:00 17.3 9 Norte 15 Norte 0 -- -- 59
2018-09-26 11:00:00 14 10 Norte 14 Nordeste 0 -- -- 65
2018-09-26 10:00:00 12.3 11 Norte 15 Norte 0 -- -- 68
2018-09-26 09:00:00 9.4 0 Calma 6 Norte 0 -- -- 90
2018-09-26 08:00:00 9.6 2 Norte 7 Norte 0 -- -- 85
2018-09-26 07:00:00 9.9 4 Norte 7 Norte 0 -- -- 84
2018-09-26 06:00:00 10.6 3 Norte 8 Norte 0 -- -- 82
2018-09-26 05:00:00 11 4 Norte 13 Norte 0 -- -- 80
2018-09-26 04:00:00 12 9 Norte 12 Norte 0 -- -- 78
2018-09-26 03:00:00 11.8 2 Norte 8 Norte 0 -- -- 82
2018-09-26 02:00:00 12.6 3 Norte 8 Norte 0 -- -- 77
2018-09-26 01:00:00 13.8 4 Nordeste 8 Nordeste 0 -- -- 72
2018-09-26 00:00:00 13.2 5 Sudoeste 10 Oeste 0 -- -- 81
2018-09-25 23:00:00 14.3 4 Sur 6 Sur 0 -- -- 73
2018-09-25 22:00:00 15.9 0 Calma 9 Sur 0 -- -- 72
2018-09-25 21:00:00 18.6 4 Sur 8 Sudeste 0 -- -- 66
2018-09-25 20:00:00 21.1 0 Calma 12 Nordeste 0 -- -- 59
2018-09-25 19:00:00 22.7 6 Norte 14 Norte 0 -- -- 52
2018-09-25 18:00:00 24 5 Norte 14 Norte 0 -- -- 46
2018-09-25 17:00:00 24.6 7 Nordeste 15 Norte 0 -- -- 42
2018-09-25 16:00:00 24.4 8 Norte 15 Nordeste 0 -- -- 43
2018-09-25 15:00:00 23.5 6 Nordeste 14 Norte 0 -- -- 47
2018-09-25 14:00:00 21.8 8 Norte 14 Nordeste 0 -- -- 54
2018-09-25 13:00:00 19.1 9 Norte 12 Norte 0 -- -- 64
2018-09-25 12:00:00 15.8 9 Norte 12 Norte 0 -- -- 75
2018-09-25 11:00:00 13.5 5 Norte 7 Nordeste 0 -- -- 86
2018-09-25 10:00:00 10.8 0 Calma 7 Sur 0 -- -- 100
2018-09-25 09:00:00 10.3 0 Calma 6 Sur 0 -- -- 100
2018-09-25 08:00:00 10.7 0 Calma 4 Sudeste 0 -- -- 100
2018-09-25 07:00:00 10.8 0 Calma 5 Nordeste 0 -- -- 100
2018-09-25 06:00:00 10.9 2 Nordeste 5 Norte 0 -- -- 99
2018-09-25 05:00:00 11.4 0 Calma 3 Sur 0 -- -- 98
2018-09-25 04:00:00 12.2 0 Calma 3 Sur 0 -- -- 95
2018-09-25 03:00:00 12.7 0 Calma 3 Sudoeste 0 -- -- 95
2018-09-25 02:00:00 13.4 0 Calma 5 Sur 0 -- -- 93
2018-09-25 01:00:00 14.1 0 Calma 3 Sur 0 -- -- 93
2018-09-25 00:00:00 14.7 2 Sur 5 Sur 0 -- -- 90
2018-09-24 23:00:00 16 2 Sudeste 5 Sur 0 -- -- 85
2018-09-24 22:00:00 17.4 2 Sudoeste 6 Sur 0 -- -- 80
2018-09-24 21:00:00 19.5 3 Sudoeste 5 Sudoeste 0 -- -- 75
2018-09-24 20:00:00 21.3 2 Norte 13 Noroeste 0 -- -- 67
2018-09-24 19:00:00 23.1 4 Noroeste 16 Norte 0 -- -- 61
2018-09-24 18:00:00 24.3 7 Norte 16 Noroeste 0 -- -- 59
2018-09-24 17:00:00 25.3 7 Norte 15 Norte 0 -- -- 55
2018-09-24 16:00:00 25.1 8 Norte 15 Norte 0 -- -- 53
2018-09-24 15:00:00 23.6 7 Norte 14 Norte 0 -- -- 57
2018-09-24 14:00:00 22.6 8 Norte 13 Norte 0 -- -- 60
2018-09-24 13:00:00 20.3 6 Norte 13 Nordeste 0 -- -- 71
2018-09-24 12:00:00 17.5 7 Norte 10 Norte 0 -- -- 80
2018-09-24 11:00:00 14.3 4 Nordeste 5 Norte 0 -- -- 95
2018-09-24 10:00:00 11.9 0 Calma 3 Sur 0 -- -- 100
2018-09-24 09:00:00 9.9 0 Calma 3 Sudoeste 0 -- -- 96
2018-09-24 08:00:00 10.2 2 Sudoeste 4 Sudoeste 0 -- -- 94
2018-09-24 07:00:00 10.7 2 Sudoeste 4 Sudoeste 0 -- -- 93
2018-09-24 06:00:00 11.3 3 Sudoeste 6 Sur 0 -- -- 93
2018-09-24 05:00:00 11.8 4 Sur 6 Sur 0 -- -- 88
2018-09-24 04:00:00 12.6 2 Sudoeste 7 Sudoeste 0 -- -- 93
2018-09-24 03:00:00 13.2 2 Sur 6 Sudoeste 0 -- -- 89
2018-09-24 02:00:00 14 4 Sur 8 Sur 0 -- -- 83
2018-09-24 01:00:00 14.9 4 Sur 6 Sur 0 -- -- 84
2018-09-24 00:00:00 16.1 5 Sur 10 Sur 0 -- -- 85
2018-09-23 23:00:00 17.2 3 Sur 6 Sur 0 -- -- 82
2018-09-23 22:00:00 18.6 0 Calma 10 Nordeste 0 -- -- 72
2018-09-23 21:00:00 20.3 0 Calma 4 Noroeste 0 -- -- 61
2018-09-23 20:00:00 22.3 5 Norte 13 Nordeste 0 -- -- 52
2018-09-23 19:00:00 23.5 8 Norte 16 Norte 0 -- -- 46
2018-09-23 18:00:00 24.6 9 Norte 22 Norte 0 -- -- 46
2018-09-23 17:00:00 26.1 10 Norte 23 Norte 0 -- -- 51
2018-09-23 16:00:00 26.9 10 Norte 25 Norte 0 -- -- 46
2018-09-23 15:00:00 27.4 8 Norte 17 Norte 0 -- -- 40
2018-09-23 14:00:00 27 5 Norte 11 Sudeste 0 -- -- 41
2018-09-23 13:00:00 24.5 6 Norte 10 Nordeste 0 -- -- 51
2018-09-23 12:00:00 21.8 4 Norte 6 Norte 0 -- -- 54
2018-09-23 11:00:00 17.5 0 Calma 5 Sudoeste 0 -- -- 71
2018-09-23 10:00:00 13.4 3 Sudoeste 9 Sudoeste 0 -- -- 83
2018-09-23 09:00:00 10.4 3 Sudoeste 6 Sudoeste 0 -- -- 93
2018-09-23 08:00:00 11 3 Sudoeste 6 Sudoeste 0 -- -- 94
2018-09-23 07:00:00 11.6 3 Sudoeste 8 Sudoeste 0 -- -- 94
2018-09-23 06:00:00 12.1 3 Sudoeste 9 Sudoeste 0 -- -- 94
2018-09-23 05:00:00 12.7 5 Sudoeste 10 Sudoeste 0 -- -- 94
2018-09-23 04:00:00 13.1 4 Sudoeste 8 Sudoeste 0 -- -- 93
2018-09-23 03:00:00 13.6 3 Sudoeste 6 Sudoeste 0 -- -- 92
2018-09-23 02:00:00 14.1 5 Sudoeste 6 Sur 0 -- -- 91
2018-09-23 01:00:00 14.9 3 Sur 4 Sur 0 -- -- 88
2018-09-23 00:00:00 15.6 2 Sudoeste 11 Sur 0 -- -- 84
2018-09-22 23:00:00 16.6 6 Sur 12 Sudeste 0 -- -- 79
2018-09-22 22:00:00 18 4 Sur 12 Sur 0 -- -- 72
2018-09-22 21:00:00 20.2 7 Sur 12 Sur 0 -- -- 68
2018-09-22 20:00:00 23.3 0 Calma 12 Nordeste 0 -- -- 58
2018-09-22 19:00:00 24 7 Norte 18 Norte 0 -- -- 52
2018-09-22 18:00:00 25.4 6 Noroeste 16 Norte 0 -- -- 55
2018-09-22 17:00:00 26.4 4 Nordeste 16 Norte 0 -- -- 52
2018-09-22 16:00:00 26.2 5 Nordeste 19 Norte 0 -- -- 53
2018-09-22 15:00:00 26.2 8 Nordeste 16 Nordeste 0 -- -- 51
2018-09-22 14:00:00 26.7 4 Noroeste 8 Norte 0 -- -- 47
2018-09-22 13:00:00 23.9 3 Noroeste 10 Norte 0 -- -- 50
2018-09-22 12:00:00 19.9 8 Norte 10 Norte 0 -- -- 66
2018-09-22 11:00:00 18.1 0 Calma 5 Sudoeste 0 -- -- 74
2018-09-22 10:00:00 13.2 2 Sudoeste 4 Sur 0 -- -- 92
2018-09-22 09:00:00 10.5 2 Sur 6 Sudoeste 0 -- -- 98
2018-09-22 08:00:00 10.4 4 Sudoeste 6 Sudoeste 0 -- -- 97
2018-09-22 07:00:00 10.7 3 Sudoeste 7 Sudoeste 0 -- -- 97
2018-09-22 06:00:00 11 2 Sudoeste 8 Sudoeste 0 -- -- 97
2018-09-22 05:00:00 11.3 5 Sur 8 Sudoeste 0 -- -- 95
2018-09-22 04:00:00 11.6 3 Sudoeste 6 Sudoeste 0 -- -- 95
2018-09-22 03:00:00 12 2 Sudoeste 6 Sudoeste 0 -- -- 95
2018-09-22 02:00:00 12.6 0 Calma 6 Sur 0 -- -- 95
2018-09-22 01:00:00 13.1 2 Sur 5 Sudoeste 0 -- -- 94
2018-09-22 00:00:00 13.7 3 Sur 7 Sur 0 -- -- 90
2018-09-21 23:00:00 14.7 6 Sur 10 Sur 0 -- -- 87
2018-09-21 22:00:00 16.1 3 Sur 6 Sur 0 -- -- 84
2018-09-21 21:00:00 17.4 2 Norte 6 Este 0 -- -- 80
2018-09-21 20:00:00 19 2 Sudeste 8 Norte 0 -- -- 74
2018-09-21 19:00:00 20 4 Noroeste 13 Norte 0 -- -- 70
2018-09-21 18:00:00 20.5 5 Norte 17 Nordeste 0 -- -- 68
2018-09-21 17:00:00 21.5 8 Nordeste 18 Nordeste 0 -- -- 63
2018-09-21 16:00:00 22.2 5 Norte 15 Nordeste 0 -- -- 60
2018-09-21 15:00:00 21.3 4 Norte 16 Norte 0 -- -- 61
2018-09-21 14:00:00 21.1 4 Norte 13 Nordeste 0 -- -- 58
2018-09-21 13:00:00 19.9 4 Nordeste 9 Norte 0 -- -- 60
2018-09-21 12:00:00 17.7 3 Sudoeste 5 Oeste 0 -- -- 67
2018-09-21 11:00:00 14.8 0 Calma 5 Sur 0 -- -- 80
2018-09-21 10:00:00 11.7 2 Sudoeste 8 Sudeste 0 -- -- 87
2018-09-21 09:00:00 8.9 0 Calma 10 Oeste 0 -- -- 97
2018-09-21 08:00:00 8.7 5 Oeste 13 Sudeste 0 -- -- 96
2018-09-21 07:00:00 8.8 2 Sudoeste 10 Sur 0 -- -- 97
2018-09-21 06:00:00 9 2 Sudoeste 9 Sur 0 -- -- 96
2018-09-21 05:00:00 9.3 5 Sur 8 Sur 0 -- -- 90
2018-09-21 04:00:00 9.8 2 Oeste 10 Sudoeste 0 -- -- 91
2018-09-21 03:00:00 10.7 6 Sur 10 Sur 0 -- -- 87
2018-09-21 02:00:00 11 7 Sur 14 Sur 0 -- -- 83
2018-09-21 01:00:00 11.6 5 Sur 12 Oeste 0 -- -- 83
2018-09-21 00:00:00 12 3 Sudoeste 16 Sur 0 -- -- 81
2018-09-20 23:00:00 13.5 4 Sur 14 Sur 0 -- -- 78
2018-09-20 22:00:00 15.3 2 Sur 12 Sur 0 -- -- 71
2018-09-20 21:00:00 17.1 3 Sudoeste 21 Sudoeste 0 -- -- 65
2018-09-20 20:00:00 19.5 9 Sudoeste 23 Sudoeste 0 -- -- 51
2018-09-20 19:00:00 21.4 10 Oeste 28 Sudoeste 0 -- -- 42
2018-09-20 18:00:00 22.5 6 Oeste 21 Oeste 0 -- -- 55
2018-09-20 17:00:00 24.6 7 Oeste 29 Oeste 0 -- -- 48
2018-09-20 16:00:00 27.9 9 Oeste 27 Sudoeste 0 -- -- 33
2018-09-20 15:00:00 27.2 12 Oeste 28 Sudoeste 0 -- -- 35
2018-09-20 14:00:00 26.9 16 Sur 28 Sudeste 0 -- -- 36
2018-09-20 13:00:00 25.1 14 Sur 30 Sur 0 -- -- 43
2018-09-20 12:00:00 19.4 8 Norte 16 Norte 0 -- -- 55
2018-09-20 11:00:00 16 8 Nordeste 13 Nordeste 0 -- -- 53
2018-09-20 10:00:00 12.4 3 Norte 5 Norte 0 -- -- 60
2018-09-20 09:00:00 7.8 2 Sudoeste 6 Sudoeste 0 -- -- 66
2018-09-20 08:00:00 7.3 4 Sudoeste 7 Sudoeste 0 -- -- 89
2018-09-20 07:00:00 7.7 3 Sudoeste 9 Oeste 0 -- -- 89
2018-09-20 06:00:00 7.8 5 Sudoeste 10 Sudoeste 0 -- -- 83
2018-09-20 05:00:00 8 4 Sudoeste 9 Sudoeste 0 -- -- 89
2018-09-20 04:00:00 8.7 5 Sudoeste 8 Sudoeste 0 -- -- 86
2018-09-20 03:00:00 9.5 3 Sudoeste 5 Sudoeste 0 -- -- 91
2018-09-20 02:00:00 10.3 2 Sur 5 Sudoeste 0 -- -- 89
2018-09-20 01:00:00 11.2 3 Sudoeste 7 Sudoeste 0 -- -- 85
2018-09-20 00:00:00 12.1 3 Sur 6 Sur 0 -- -- 82